Time;durP1;ratioP1;P1;durP2;ratioP2;P2;SDS_P1;SDS_P2;PMS_P1;PMS_P2;Temp;Humidity;BMP_temperature;BMP_pressure;BME280_temperature;BME280_humidity;BME280_pressure;Samples;Min_cycle;Max_cycle;Signal;HPM_P1;HPM_P2
2023/06/08 00:00:58;;;;;;;0.00;0.00;;;11.30;17.70;;;;;;5124497;27;20039;-73
2023/06/08 00:03:26;;;;;;;2.00;0.85;;;11.30;25.00;;;;;;5127678;27;20432;-74
2023/06/08 00:05:52;;;;;;;0.25;0.13;;;11.30;34.10;;;;;;5127194;27;20405;-74
2023/06/08 00:08:18;;;;;;;0.15;0.15;;;11.40;28.90;;;;;;5109224;27;20047;-73
2023/06/08 00:10:44;;;;;;;2.05;1.40;;;11.40;1.00;;;;;;5126331;27;20047;-74
2023/06/08 00:13:10;;;;;;;5.65;1.67;;;11.40;27.60;;;;;;5128364;27;20059;-73
2023/06/08 00:15:36;;;;;;;0.35;0.32;;;11.40;43.60;;;;;;5127575;27;20082;-73
2023/06/08 00:18:02;;;;;;;1.23;1.13;;;11.50;24.20;;;;;;5127488;27;20074;-74
2023/06/08 00:20:28;;;;;;;0.00;0.00;;;11.50;1.00;;;;;;5127090;27;20455;-74
2023/06/08 00:22:56;;;;;;;3.65;2.15;;;11.50;28.10;;;;;;5127641;27;20417;-74
2023/06/08 00:25:22;;;;;;;0.43;0.10;;;11.50;1.00;;;;;;5127153;27;20047;-74
2023/06/08 00:27:47;;;;;;;0.52;0.52;;;11.50;1.00;;;;;;5127377;27;20074;-73
2023/06/08 00:30:13;;;;;;;0.32;0.32;;;11.60;27.40;;;;;;5133943;27;20085;-73
2023/06/08 00:32:40;;;;;;;0.35;0.35;;;11.60;18.60;;;;;;5131232;27;20058;-74
2023/06/08 00:35:06;;;;;;;0.55;0.50;;;11.60;40.70;;;;;;5128895;27;20516;-74
2023/06/08 00:37:32;;;;;;;0.30;0.20;;;11.60;11.30;;;;;;5127055;27;20493;-74
2023/06/08 00:39:57;;;;;;;0.30;0.30;;;11.60;1.00;;;;;;5127669;27;20046;-73
2023/06/08 00:42:23;;;;;;;0.32;0.25;;;11.60;31.60;;;;;;5127659;27;20036;-74
2023/06/08 00:44:48;;;;;;;0.47;0.32;;;11.60;20.40;;;;;;5127749;27;20397;-74
2023/06/08 00:47:15;;;;;;;2.20;1.45;;;11.60;32.20;;;;;;5126989;27;20140;-74
2023/06/08 00:49:41;;;;;;;0.13;0.08;;;11.60;9.80;;;;;;5127116;27;20043;-74
2023/06/08 00:52:08;;;;;;;2.15;1.00;;;11.60;1.00;;;;;;5127634;27;20072;-73
2023/06/08 00:54:34;;;;;;;1.17;0.68;;;11.60;7.70;;;;;;5147729;27;20046;-74
2023/06/08 00:57:02;;;;;;;0.77;0.77;;;11.60;59.70;;;;;;5148011;27;20118;-73
2023/06/08 00:59:32;;;;;;;1.35;1.10;;;11.50;77.50;;;;;;5132756;27;20100;-74
2023/06/08 01:01:58;;;;;;;2.17;0.85;;;11.50;74.30;;;;;;5133973;27;20035;-74
2023/06/08 01:04:25;;;;;;;3.15;1.90;;;11.50;79.00;;;;;;5147640;27;20041;-73
2023/06/08 01:07:02;;;;;;;0.10;0.10;;;11.50;46.60;;;;;;5147661;27;20462;-74
2023/06/08 01:09:31;;;;;;;1.13;0.68;;;11.50;70.70;;;;;;5142471;27;20116;-74
2023/06/08 01:12:16;;;;;;;7.78;1.73;;;11.40;39.50;;;;;;5126334;27;20459;-73
2023/06/08 01:15:08;;;;;;;1.77;1.35;;;11.40;15.60;;;;;;5127120;27;20057;-74
2023/06/08 01:17:47;;;;;;;0.73;0.50;;;11.40;1.00;;;;;;5126497;27;20671;-74
2023/06/08 01:20:18;;;;;;;0.15;0.15;;;11.30;82.30;;;;;;5126626;27;20055;-74
2023/06/08 01:23:12;;;;;;;0.52;0.32;;;12.00;99.90;;;;;;5126438;27;20386;-73
2023/06/08 01:25:40;;;;;;;0.90;0.80;;;11.40;99.90;;;;;;5126731;27;20058;-74
2023/06/08 01:28:12;;;;;;;0.20;0.20;;;11.40;99.90;;;;;;5126504;27;20450;-74
2023/06/08 01:30:46;;;;;;;1.20;1.10;;;11.40;99.90;;;;;;5126431;27;20119;-74
2023/06/08 01:33:17;;;;;;;0.93;0.50;;;11.40;99.90;;;;;;5146656;27;20442;-73
2023/06/08 01:35:48;;;;;;;0.32;0.32;;;11.40;99.90;;;;;;5147160;27;20485;-73
2023/06/08 01:38:46;;;;;;;3.83;0.93;;;11.40;99.90;;;;;;5147418;27;20130;-74
2023/06/08 01:41:20;;;;;;;0.80;0.52;;;11.40;99.90;;;;;;5127224;27;20095;-74
2023/06/08 01:43:48;;;;;;;3.13;0.80;;;11.50;99.90;;;;;;5135708;27;20042;-74
2023/06/08 01:46:16;;;;;;;0.30;0.30;;;11.40;93.50;;;;;;5146941;27;20050;-74
2023/06/08 01:48:45;;;;;;;0.25;0.25;;;11.50;96.10;;;;;;5143382;27;20445;-73
2023/06/08 01:51:12;;;;;;;1.83;0.68;;;11.50;99.90;;;;;;5146919;27;20058;-74
2023/06/08 01:53:38;;;;;;;1.55;0.75;;;11.50;98.70;;;;;;5138333;27;20097;-74
2023/06/08 01:56:03;;;;;;;0.13;0.13;;;11.50;99.90;;;;;;5131940;27;20070;-74
2023/06/08 01:58:29;;;;;;;0.17;0.17;;;11.50;99.90;;;;;;5147144;27;20511;-74
2023/06/08 02:00:55;;;;;;;0.20;0.20;;;11.50;99.90;;;;;;5146434;27;20038;-74
2023/06/08 02:03:20;;;;;;;0.00;0.00;;;11.50;99.90;;;;;;5141022;27;20099;-74
2023/06/08 02:05:46;;;;;;;1.92;0.55;;;11.50;99.90;;;;;;5126024;27;20043;-74
2023/06/08 02:08:11;;;;;;;2.05;1.23;;;11.50;99.90;;;;;;5125586;27;20485;-74
2023/06/08 02:10:37;;;;;;;0.10;0.10;;;11.50;99.90;;;;;;5125575;27;20466;-74
2023/06/08 02:13:03;;;;;;;1.15;0.28;;;11.40;99.90;;;;;;5125475;27;20051;-74
2023/06/08 02:15:29;;;;;;;2.45;0.70;;;11.40;99.90;;;;;;5139928;27;20072;-73
2023/06/08 02:17:58;;;;;;;0.35;0.35;;;11.40;99.90;;;;;;5146113;27;20081;-74
2023/06/08 02:20:25;;;;;;;2.28;1.17;;;11.40;99.90;;;;;;5126686;27;20042;-74
2023/06/08 02:22:50;;;;;;;14.27;1.58;;;11.50;99.90;;;;;;5124671;27;20043;-74
2023/06/08 02:25:16;;;;;;;0.20;0.20;;;11.40;99.90;;;;;;5125328;27;20054;-74
2023/06/08 02:27:43;;;;;;;0.08;0.08;;;11.50;99.90;;;;;;5126367;27;20043;-74
2023/06/08 02:30:10;;;;;;;2.40;0.43;;;11.50;99.90;;;;;;5109541;27;20051;-74
2023/06/08 02:32:37;;;;;;;5.38;1.13;;;11.40;99.90;;;;;;5146499;27;20054;-74
2023/06/08 02:35:04;;;;;;;0.80;0.80;;;11.50;99.90;;;;;;5145564;27;20127;-74
2023/06/08 02:37:30;;;;;;;0.90;0.82;;;11.40;99.90;;;;;;5145829;27;20546;-74
2023/06/08 02:39:56;;;;;;;0.95;0.93;;;11.40;99.90;;;;;;5146471;27;20074;-73
2023/06/08 02:42:22;;;;;;;2.60;0.50;;;11.40;99.90;;;;;;5146262;27;20103;-73
2023/06/08 02:44:48;;;;;;;0.60;0.60;;;11.40;99.90;;;;;;5129771;27;20047;-73
2023/06/08 02:47:14;;;;;;;0.52;0.52;;;11.40;99.90;;;;;;5125064;27;20074;-73
2023/06/08 02:49:40;;;;;;;0.85;0.85;;;11.40;99.90;;;;;;5125542;27;20125;-74
2023/06/08 02:52:06;;;;;;;0.93;0.75;;;11.40;99.90;;;;;;5129669;27;20604;-74
2023/06/08 02:54:32;;;;;;;0.70;0.65;;;11.40;99.90;;;;;;5125197;27;20039;-73
2023/06/08 02:56:57;;;;;;;2.47;2.28;;;11.40;99.90;;;;;;5125357;27;20516;-74
2023/06/08 02:59:23;;;;;;;1.23;0.75;;;11.30;99.90;;;;;;5125115;27;20135;-73
2023/06/08 03:01:53;;;;;;;1.05;0.95;;;11.30;99.90;;;;;;5106729;27;20073;-74
2023/06/08 03:04:23;;;;;;;1.15;1.00;;;11.50;99.90;;;;;;5124408;27;20155;-73
2023/06/08 03:06:55;;;;;;;1.05;0.63;;;11.30;99.90;;;;;;5124785;27;20576;-74
2023/06/08 03:09:22;;;;;;;2.22;0.77;;;11.30;99.90;;;;;;5124777;27;20071;-73
2023/06/08 03:11:49;;;;;;;0.73;0.68;;;11.40;99.90;;;;;;5124514;27;20055;-73
2023/06/08 03:14:16;;;;;;;0.20;0.20;;;11.30;99.90;;;;;;5124841;27;20172;-74
2023/06/08 03:16:42;;;;;;;1.00;0.93;;;11.30;99.90;;;;;;5124401;27;20640;-73
2023/06/08 03:19:09;;;;;;;0.00;0.00;;;11.30;99.90;;;;;;5124463;27;20504;-73
2023/06/08 03:21:36;;;;;;;0.00;0.00;;;11.30;99.90;;;;;;5124650;27;20535;-73
2023/06/08 03:24:03;;;;;;;1.35;1.10;;;11.30;99.90;;;;;;5124462;27;20127;-74
2023/06/08 03:26:28;;;;;;;2.97;1.08;;;11.30;99.90;;;;;;5124777;27;20046;-74
2023/06/08 03:28:54;;;;;;;0.00;0.00;;;11.30;99.90;;;;;;5124420;27;20055;-74
2023/06/08 03:31:20;;;;;;;0.13;0.13;;;11.20;99.90;;;;;;5124323;27;20056;-74
2023/06/08 03:33:46;;;;;;;1.45;1.05;;;11.20;99.90;;;;;;5130711;27;20490;-74
2023/06/08 03:36:12;;;;;;;0.22;0.22;;;11.20;99.90;;;;;;5145010;27;20053;-74
2023/06/08 03:38:38;;;;;;;3.13;1.20;;;11.20;99.90;;;;;;5145094;27;20086;-74
2023/06/08 03:41:03;;;;;;;0.10;0.10;;;11.20;99.90;;;;;;5145009;27;20066;-75
2023/06/08 03:43:29;;;;;;;2.08;1.35;;;11.20;99.90;;;;;;5140313;27;20148;-74
2023/06/08 03:45:55;;;;;;;3.35;1.90;;;11.20;99.90;;;;;;5124266;27;20103;-74
2023/06/08 03:48:20;;;;;;;0.32;0.30;;;11.20;99.90;;;;;;5124693;27;20039;-74
2023/06/08 03:50:46;;;;;;;0.47;0.40;;;11.20;99.90;;;;;;5124618;27;20043;-74
2023/06/08 03:53:12;;;;;;;0.30;0.20;;;11.30;99.90;;;;;;5125176;27;20039;-74
2023/06/08 03:55:38;;;;;;;0.55;0.35;;;11.30;99.90;;;;;;5145344;27;20155;-75
2023/06/08 03:58:04;;;;;;;4.47;2.00;;;11.30;99.90;;;;;;5138846;27;20466;-74
2023/06/08 04:00:30;;;;;;;1.70;0.88;;;11.30;99.90;;;;;;5124688;28;20038;-75
2023/06/08 04:02:56;;;;;;;0.55;0.47;;;11.30;88.60;;;;;;5126471;27;21009;-74
2023/06/08 04:05:23;;;;;;;0.15;0.15;;;11.40;62.00;;;;;;5145355;27;20043;-74
2023/06/08 04:07:50;;;;;;;1.65;1.05;;;11.40;75.60;;;;;;5122138;28;20038;-75
2023/06/08 04:10:16;;;;;;;0.13;0.13;;;11.50;57.90;;;;;;5129821;27;20099;-74
2023/06/08 04:12:42;;;;;;;0.38;0.38;;;11.50;36.40;;;;;;5144804;27;20062;-74
2023/06/08 04:15:09;;;;;;;0.40;0.40;;;11.50;5.50;;;;;;5124591;28;20108;-74
2023/06/08 04:17:35;;;;;;;1.10;0.77;;;11.60;1.00;;;;;;5124019;28;20108;-74
2023/06/08 04:20:00;;;;;;;4.75;0.73;;;11.60;1.00;;;;;;5124662;28;20549;-74
2023/06/08 04:22:28;;;;;;;0.50;0.40;;;11.60;1.00;;;;;;5124658;28;20107;-74
2023/06/08 04:24:54;;;;;;;0.55;0.55;;;11.70;1.00;;;;;;5124365;28;21155;-74
2023/06/08 04:27:21;;;;;;;1.45;1.13;;;11.70;99.90;;;;;;5124107;28;20039;-74
2023/06/08 04:29:46;;;;;;;2.45;1.48;;;11.70;99.90;;;;;;5124177;27;20043;-74
2023/06/08 04:32:12;;;;;;;1.27;1.13;;;11.80;99.90;;;;;;5124303;28;20091;-74
2023/06/08 04:34:38;;;;;;;0.65;0.60;;;11.80;99.90;;;;;;5136548;27;20054;-74
2023/06/08 04:37:03;;;;;;;0.15;0.15;;;11.80;99.90;;;;;;5136108;27;20078;-74
2023/06/08 04:39:29;;;;;;;0.40;0.40;;;11.80;28.70;;;;;;5137921;27;20134;-74
2023/06/08 04:41:55;;;;;;;1.10;0.82;;;11.90;99.90;;;;;;5123532;28;20509;-74
2023/06/08 04:44:21;;;;;;;0.65;0.63;;;11.90;1.00;;;;;;5105091;28;20050;-74
2023/06/08 04:46:47;;;;;;;1.90;0.95;;;12.00;1.00;;;;;;5118755;27;20068;-75
2023/06/08 04:49:14;;;;;;;1.08;0.70;;;12.10;1.00;;;;;;5127679;27;20039;-73
2023/06/08 04:51:44;;;;;;;0.52;0.52;;;12.20;99.90;;;;;;5127513;27;20058;-73
2023/06/08 04:54:13;;;;;;;0.00;0.00;;;12.30;1.00;;;;;;5086761;27;20527;-74
2023/06/08 04:56:40;;;;;;;0.88;0.65;;;12.40;99.90;;;;;;5127083;27;20051;-74
2023/06/08 04:59:09;;;;;;;0.73;0.25;;;12.40;99.90;;;;;;5124086;27;20043;-73
2023/06/08 05:01:35;;;;;;;14.32;1.08;;;12.50;99.90;;;;;;5127077;27;20050;-74
2023/06/08 05:04:02;;;;;;;1.67;1.10;;;12.60;99.90;;;;;;5136469;27;20525;-74
2023/06/08 05:06:28;;;;;;;3.85;1.55;;;12.60;1.00;;;;;;5148885;27;20042;-73
2023/06/08 05:08:53;;;;;;;0.63;0.63;;;12.70;99.90;;;;;;5141681;27;20117;-73
2023/06/08 05:11:19;;;;;;;1.02;0.93;;;12.80;99.90;;;;;;5127232;27;20435;-73
2023/06/08 05:13:44;;;;;;;0.43;0.25;;;12.90;1.00;;;;;;5128265;27;20058;-74
2023/06/08 05:16:10;;;;;;;0.20;0.20;;;12.90;1.00;;;;;;5126547;27;20546;-76
2023/06/08 05:18:37;;;;;;;2.28;1.65;;;13.00;99.90;;;;;;5125294;27;20075;-73
2023/06/08 05:21:03;;;;;;;1.45;1.08;;;13.10;99.90;;;;;;5125186;27;20102;-74
2023/06/08 05:23:28;;;;;;;0.10;0.10;;;13.20;99.90;;;;;;5127860;27;20575;-74
2023/06/08 05:25:54;;;;;;;0.05;0.05;;;13.20;99.90;;;;;;5126937;27;20134;-74
2023/06/08 05:28:20;;;;;;;3.80;1.23;;;13.30;99.90;;;;;;5124966;27;20043;-73
2023/06/08 05:30:45;;;;;;;1.17;1.02;;;13.60;99.90;;;;;;5131412;27;20047;-74
2023/06/08 05:33:11;;;;;;;0.47;0.40;;;13.70;99.90;;;;;;5145973;27;20090;-74
2023/06/08 05:35:37;;;;;;;1.00;0.80;;;15.40;99.90;;;;;;5128580;27;20432;-74
2023/06/08 05:38:02;;;;;;;3.72;1.10;;;14.40;1.00;;;;;;5129402;27;20057;-74
2023/06/08 05:40:28;;;;;;;1.48;0.73;;;14.60;99.90;;;;;;5125526;27;20046;-74
2023/06/08 05:42:54;;;;;;;0.88;0.85;;;14.70;28.50;;;;;;5126501;27;20051;-74
2023/06/08 05:45:20;;;;;;;4.88;1.52;;;14.60;1.00;;;;;;5126845;27;20131;-76
2023/06/08 05:47:46;;;;;;;7.10;0.88;;;14.50;1.00;;;;;;5126771;27;20058;-74
2023/06/08 05:50:11;;;;;;;0.80;0.63;;;14.70;1.00;;;;;;5126873;27;20052;-74
2023/06/08 05:52:37;;;;;;;0.47;0.38;;;14.70;99.90;;;;;;5126578;27;20147;-74
2023/06/08 05:55:03;;;;;;;0.77;0.38;;;14.90;99.90;;;;;;5126676;27;20092;-73
2023/06/08 05:57:28;;;;;;;2.58;0.75;;;15.10;99.90;;;;;;5126337;27;20437;-74
2023/06/08 05:59:54;;;;;;;5.47;1.38;;;15.20;99.90;;;;;;5125829;27;20042;-74
2023/06/08 06:02:20;;;;;;;0.35;0.35;;;15.50;99.90;;;;;;5126458;27;20471;-74
2023/06/08 06:04:45;;;;;;;0.75;0.47;;;15.50;99.90;;;;;;5126713;27;20083;-74
2023/06/08 06:07:11;;;;;;;0.20;0.20;;;15.50;99.90;;;;;;5126881;27;20083;-74
2023/06/08 06:09:36;;;;;;;0.00;0.00;;;15.70;99.90;;;;;;5126359;27;20047;-73
2023/06/08 06:12:03;;;;;;;1.50;0.85;;;15.70;99.90;;;;;;5124433;27;20054;-74
2023/06/08 06:14:37;;;;;;;0.40;0.40;;;15.70;99.90;;;;;;5124519;27;20381;-74
2023/06/08 06:17:04;;;;;;;2.95;1.08;;;15.90;99.90;;;;;;5124231;27;20497;-74
2023/06/08 06:19:33;;;;;;;6.32;1.48;;;16.60;86.60;;;;;;5124324;27;20070;-74
2023/06/08 06:21:58;;;;;;;0.25;0.25;;;17.30;1.00;;;;;;5124409;27;20116;-74
2023/06/08 06:24:24;;;;;;;2.17;0.32;;;17.50;1.00;;;;;;5124051;27;20047;-74
2023/06/08 06:26:50;;;;;;;0.47;0.40;;;17.80;1.00;;;;;;5124616;27;20130;-74
2023/06/08 06:29:16;;;;;;;0.45;0.40;;;18.00;1.00;;;;;;5123754;27;20133;-74
2023/06/08 06:31:42;;;;;;;0.85;0.25;;;18.70;1.00;;;;;;5105456;27;20054;-74
2023/06/08 06:34:07;;;;;;;6.50;1.20;;;19.70;1.00;;;;;;5124016;27;20120;-74
2023/06/08 06:36:33;;;;;;;0.30;0.30;;;20.10;1.00;;;;;;5123624;27;20089;-74
2023/06/08 06:38:58;;;;;;;8.65;2.40;;;20.90;1.00;;;;;;5123926;27;20516;-74
2023/06/08 06:41:25;;;;;;;0.35;0.35;;;20.50;99.90;;;;;;5123278;27;20432;-74
2023/06/08 06:43:50;;;;;;;0.00;0.00;;;20.60;99.90;;;;;;5104780;27;20115;-74
2023/06/08 06:46:19;;;;;;;3.20;1.98;;;20.60;99.90;;;;;;5123270;27;20046;-74
2023/06/08 06:48:45;;;;;;;0.43;0.32;;;20.50;99.90;;;;;;5123903;27;20104;-74
2023/06/08 06:51:11;;;;;;;0.30;0.30;;;21.10;99.90;;;;;;5123834;27;20382;-74
2023/06/08 06:53:37;;;;;;;0.10;0.10;;;21.20;99.90;;;;;;5124002;27;20059;-74
2023/06/08 06:56:03;;;;;;;0.60;0.60;;;21.50;99.90;;;;;;5124108;27;20062;-74
2023/06/08 06:58:29;;;;;;;0.40;0.40;;;21.70;99.90;;;;;;5123835;27;20043;-74
2023/06/08 07:00:55;;;;;;;0.32;0.25;;;22.00;99.90;;;;;;5123617;27;20035;-74
2023/06/08 07:03:21;;;;;;;0.95;0.35;;;22.40;99.90;;;;;;5123362;27;20576;-74
2023/06/08 07:05:47;;;;;;;1.75;1.45;;;22.40;99.90;;;;;;5123264;27;20058;-74
2023/06/08 07:08:13;;;;;;;0.35;0.35;;;22.70;99.90;;;;;;5123348;27;20039;-73
2023/06/08 07:10:38;;;;;;;0.50;0.30;;;22.40;99.90;;;;;;5123284;27;20054;-73
2023/06/08 07:13:04;;;;;;;0.00;0.00;;;23.00;99.90;;;;;;5123041;27;20079;-73
2023/06/08 07:15:30;;;;;;;0.55;0.52;;;23.20;99.90;;;;;;5123120;27;20051;-72
2023/06/08 07:17:55;;;;;;;0.10;0.10;;;22.80;99.90;;;;;;5122997;27;20047;-72
2023/06/08 07:20:21;;;;;;;0.10;0.10;;;23.30;99.90;;;;;;5123585;27;20039;-73
2023/06/08 07:22:46;;;;;;;0.30;0.22;;;23.10;99.90;;;;;;5122989;27;20423;-73
2023/06/08 07:25:14;;;;;;;0.73;0.55;;;22.70;99.90;;;;;;5119117;27;20039;-74
2023/06/08 07:27:39;;;;;;;0.10;0.10;;;23.20;99.90;;;;;;5120493;27;20572;-74
2023/06/08 07:30:06;;;;;;;2.03;0.43;;;23.10;99.90;;;;;;5120446;27;20132;-74
2023/06/08 07:32:32;;;;;;;0.00;0.00;;;22.40;99.90;;;;;;5122911;27;20554;-74
2023/06/08 07:34:58;;;;;;;0.20;0.20;;;22.90;99.90;;;;;;5120463;27;20123;-73
2023/06/08 07:37:24;;;;;;;0.30;0.20;;;23.00;99.90;;;;;;5119959;27;20472;-73
2023/06/08 07:39:49;;;;;;;0.52;0.50;;;23.70;99.90;;;;;;5120576;27;20439;-73
2023/06/08 07:42:15;;;;;;;0.73;0.57;;;23.80;99.90;;;;;;5120475;27;20041;-74
2023/06/08 07:44:41;;;;;;;1.80;0.88;;;23.90;99.90;;;;;;5120315;27;20515;-74
2023/06/08 07:47:06;;;;;;;1.02;0.35;;;24.10;99.90;;;;;;5120129;27;20629;-73
2023/06/08 07:49:32;;;;;;;0.28;0.28;;;24.20;99.90;;;;;;5119702;27;20074;-73
2023/06/08 07:51:57;;;;;;;0.25;0.25;;;24.80;99.90;;;;;;5119798;27;20122;-73
2023/06/08 07:54:24;;;;;;;3.42;1.50;;;24.80;99.90;;;;;;5119846;27;20055;-74
2023/06/08 07:56:50;;;;;;;0.38;0.15;;;25.00;99.90;;;;;;5120017;27;20034;-74
2023/06/08 07:59:16;;;;;;;0.40;0.32;;;25.20;99.90;;;;;;5120058;28;20606;-74
2023/06/08 08:01:42;;;;;;;0.35;0.35;;;24.90;99.90;;;;;;5120289;28;20137;-74
2023/06/08 08:04:09;;;;;;;0.60;0.43;;;25.00;99.90;;;;;;5120681;27;20526;-74
2023/06/08 08:06:34;;;;;;;6.35;1.65;;;25.00;99.90;;;;;;5120199;28;20043;-74
2023/06/08 08:09:00;;;;;;;1.25;1.15;;;24.30;99.90;;;;;;5119969;28;20050;-74
2023/06/08 08:11:27;;;;;;;0.55;0.38;;;24.60;99.90;;;;;;5119602;28;20076;-74
2023/06/08 08:13:52;;;;;;;0.70;0.57;;;24.60;99.90;;;;;;5121606;28;20051;-74
2023/06/08 08:16:18;;;;;;;1.63;0.75;;;24.20;99.90;;;;;;5122871;28;20073;-73
2023/06/08 08:18:44;;;;;;;1.95;0.82;;;24.10;99.90;;;;;;5122799;28;20412;-74
2023/06/08 08:21:09;;;;;;;0.43;0.43;;;25.00;99.90;;;;;;5122432;27;20035;-73
2023/06/08 08:23:36;;;;;;;2.38;1.33;;;25.10;99.90;;;;;;5126659;27;20051;-73
2023/06/08 08:26:02;;;;;;;0.55;0.38;;;25.10;99.90;;;;;;5126694;27;20058;-73
2023/06/08 08:28:28;;;;;;;1.58;0.93;;;24.80;99.90;;;;;;5126499;27;20039;-73
2023/06/08 08:30:54;;;;;;;1.85;0.93;;;25.20;99.90;;;;;;5126775;27;20042;-74
2023/06/08 08:33:20;;;;;;;0.40;0.40;;;25.60;99.90;;;;;;5126374;27;20081;-73
2023/06/08 08:35:45;;;;;;;0.40;0.38;;;25.60;99.90;;;;;;5126181;27;20127;-74
2023/06/08 08:38:11;;;;;;;0.50;0.43;;;26.00;99.90;;;;;;5126702;27;20047;-74
2023/06/08 08:40:37;;;;;;;0.43;0.43;;;25.60;99.90;;;;;;5108208;27;20442;-73
2023/06/08 08:43:29;;;;;;;0.52;0.50;;;25.70;99.90;;;;;;5126712;27;20405;-74
2023/06/08 08:45:58;;;;;;;1.13;0.80;;;25.90;99.90;;;;;;5126436;27;20035;-74
2023/06/08 08:48:27;;;;;;;2.72;0.55;;;25.80;99.90;;;;;;5126560;27;20043;-73
2023/06/08 08:50:59;;;;;;;0.47;0.47;;;25.80;99.90;;;;;;5126781;27;20421;-73
2023/06/08 08:53:30;;;;;;;1.85;0.60;;;25.70;99.90;;;;;;5126462;27;20054;-73
2023/06/08 08:55:59;;;;;;;22.05;1.38;;;25.90;99.90;;;;;;5126356;27;20043;-73
2023/06/08 08:58:26;;;;;;;0.40;0.38;;;26.50;99.90;;;;;;5108256;27;20460;-73
2023/06/08 09:00:52;;;;;;;6.68;1.80;;;26.40;99.90;;;;;;5126239;27;20047;-73
2023/06/08 09:03:18;;;;;;;0.20;0.20;;;26.60;99.90;;;;;;5126081;27;20123;-73
2023/06/08 09:05:45;;;;;;;1.55;0.80;;;27.30;99.90;;;;;;5107751;27;20054;-73
2023/06/08 09:08:11;;;;;;;0.55;0.47;;;27.00;99.90;;;;;;5125853;27;20176;-73
2023/06/08 09:10:37;;;;;;;0.93;0.68;;;26.60;99.90;;;;;;5126033;27;20057;-72
2023/06/08 09:13:02;;;;;;;1.30;0.95;;;27.00;99.90;;;;;;5125834;27;20059;-73
2023/06/08 09:15:37;;;;;;;2.22;1.20;;;26.80;99.90;;;;;;5125664;27;20054;-73
2023/06/08 09:18:19;;;;;;;0.20;0.20;;;26.70;99.90;;;;;;5126064;27;20042;-72
2023/06/08 09:20:45;;;;;;;0.90;0.63;;;27.40;99.90;;;;;;5125878;27;20039;-73
2023/06/08 09:23:15;;;;;;;5.03;2.13;;;27.30;99.90;;;;;;5125591;27;20047;-73
2023/06/08 09:25:42;;;;;;;1.52;1.05;;;27.80;99.90;;;;;;5107488;27;20054;-73
2023/06/08 09:28:28;;;;;;;0.40;0.40;;;27.30;99.90;;;;;;5125653;27;20095;-73
2023/06/08 09:30:57;;;;;;;0.63;0.50;;;27.80;99.90;;;;;;5126016;27;20054;-73
2023/06/08 09:33:32;;;;;;;2.65;0.85;;;27.30;99.90;;;;;;5125462;27;20079;-73
2023/06/08 09:35:58;;;;;;;1.70;0.63;;;27.50;99.90;;;;;;5125590;27;20107;-73
2023/06/08 09:38:26;;;;;;;2.10;0.90;;;27.70;99.90;;;;;;5125255;27;20043;-73
2023/06/08 09:41:15;;;;;;;2.00;0.63;;;27.40;99.90;;;;;;5125349;27;20315;-73
2023/06/08 09:43:45;;;;;;;0.95;0.65;;;27.70;99.90;;;;;;5125314;27;20452;-73
2023/06/08 09:46:15;;;;;;;0.15;0.15;;;28.20;99.90;;;;;;5125368;27;20366;-73
2023/06/08 09:48:51;;;;;;;0.10;0.10;;;27.40;99.90;;;;;;5125141;27;20047;-73
2023/06/08 09:51:18;;;;;;;0.03;0.03;;;27.20;99.90;;;;;;5125627;27;20043;-73
2023/06/08 09:53:45;;;;;;;0.28;0.20;;;27.10;99.90;;;;;;5107087;27;20441;-73
2023/06/08 09:56:14;;;;;;;1.65;0.40;;;27.10;99.90;;;;;;5125294;27;20486;-73
2023/06/08 09:58:42;;;;;;;7.22;1.40;;;27.00;99.90;;;;;;5106699;27;20563;-73
2023/06/08 10:01:11;;;;;;;0.50;0.40;;;27.10;99.90;;;;;;5124951;27;20114;-73
2023/06/08 10:03:47;;;;;;;0.20;0.20;;;26.50;99.90;;;;;;5125121;27;20046;-73
2023/06/08 10:06:16;;;;;;;0.50;0.40;;;26.20;99.90;;;;;;5106403;27;20539;-73
2023/06/08 10:08:45;;;;;;;1.48;0.68;;;26.20;99.90;;;;;;5125058;27;20154;-73
2023/06/08 10:11:13;;;;;;;0.65;0.30;;;25.80;99.90;;;;;;5124683;27;20563;-73
2023/06/08 10:13:40;;;;;;;0.65;0.40;;;25.60;99.90;;;;;;5105977;27;20447;-73
2023/06/08 10:16:07;;;;;;;0.50;0.45;;;25.50;99.90;;;;;;5124493;27;20071;-73
2023/06/08 10:18:34;;;;;;;0.38;0.20;;;25.60;99.90;;;;;;5123509;27;20092;-73
2023/06/08 10:21:03;;;;;;;0.35;0.35;;;25.50;99.90;;;;;;5124877;27;20043;-74
2023/06/08 10:23:30;;;;;;;1.02;0.85;;;25.30;99.90;;;;;;5124888;27;20047;-73
2023/06/08 10:25:57;;;;;;;0.75;0.45;;;25.00;99.90;;;;;;5106400;27;20454;-73
2023/06/08 10:28:22;;;;;;;0.70;0.52;;;24.90;99.90;;;;;;5124593;27;20796;-73
2023/06/08 10:30:48;;;;;;;1.45;1.02;;;24.70;99.90;;;;;;5124477;27;20409;-73
2023/06/08 10:33:15;;;;;;;0.60;0.43;;;24.90;99.90;;;;;;5124346;27;20050;-73
2023/06/08 10:35:43;;;;;;;1.58;0.75;;;24.70;99.90;;;;;;5124339;27;20057;-73
2023/06/08 10:38:16;;;;;;;1.08;0.98;;;24.60;99.90;;;;;;5123923;27;20042;-73
2023/06/08 10:40:46;;;;;;;1.17;0.82;;;24.50;99.90;;;;;;5124621;27;20093;-73
2023/06/08 10:43:12;;;;;;;5.50;2.20;;;24.80;99.90;;;;;;5124452;27;20389;-73
2023/06/08 10:45:40;;;;;;;0.45;0.22;;;24.80;99.90;;;;;;5122938;27;20497;-72
2023/06/08 10:48:10;;;;;;;0.98;0.47;;;24.90;99.90;;;;;;5123812;27;20047;-73
2023/06/08 10:50:37;;;;;;;4.00;0.85;;;25.20;99.90;;;;;;5124326;27;20051;-72
2023/06/08 10:53:03;;;;;;;10.23;0.57;;;25.20;99.90;;;;;;5124533;27;20397;-73
2023/06/08 10:55:30;;;;;;;0.68;0.47;;;25.60;99.90;;;;;;5123860;27;20129;-73
2023/06/08 10:58:06;;;;;;;3.53;0.68;;;25.40;99.90;;;;;;5124087;27;20067;-73
2023/06/08 11:00:33;;;;;;;12.95;1.83;;;25.20;99.90;;;;;;5123032;27;20108;-73
2023/06/08 11:02:58;;;;;;;0.73;0.50;;;25.10;99.90;;;;;;5121969;27;20479;-73
2023/06/08 11:05:24;;;;;;;1.30;0.75;;;25.00;99.90;;;;;;5121666;27;20130;-72
2023/06/08 11:07:53;;;;;;;0.63;0.43;;;25.10;99.90;;;;;;5121980;27;20085;-73
2023/06/08 11:10:22;;;;;;;0.30;0.30;;;25.10;99.90;;;;;;5122194;27;20043;-72
2023/06/08 11:12:48;;;;;;;0.80;0.50;;;25.30;99.90;;;;;;5121823;27;20051;-73
2023/06/08 11:15:14;;;;;;;0.75;0.65;;;25.20;99.90;;;;;;5104682;27;20150;-73
2023/06/08 11:17:53;;;;;;;1.35;0.68;;;25.50;99.90;;;;;;5123525;27;20138;-73
2023/06/08 11:20:26;;;;;;;0.30;0.30;;;25.00;99.90;;;;;;5123754;27;20043;-73
2023/06/08 11:22:52;;;;;;;0.65;0.40;;;25.40;99.90;;;;;;5123759;27;20043;-73
2023/06/08 11:25:22;;;;;;;3.50;1.25;;;25.40;99.90;;;;;;5123782;27;20366;-73
2023/06/08 11:27:52;;;;;;;2.83;0.63;;;25.20;99.90;;;;;;5105380;27;20047;-74
2023/06/08 11:30:20;;;;;;;0.63;0.40;;;25.80;99.90;;;;;;5123492;27;20119;-74
2023/06/08 11:32:52;;;;;;;1.08;0.90;;;26.20;99.90;;;;;;5104887;27;20092;-74
2023/06/08 11:35:19;;;;;;;0.20;0.20;;;26.20;99.90;;;;;;5104623;27;20544;-74
2023/06/08 11:37:45;;;;;;;0.95;0.68;;;26.50;99.90;;;;;;5123367;27;20079;-74
2023/06/08 11:40:13;;;;;;;3.72;1.45;;;27.00;99.90;;;;;;5123349;27;20046;-74
2023/06/08 11:42:40;;;;;;;3.50;1.50;;;27.20;99.90;;;;;;5122938;27;20078;-74
2023/06/08 11:45:07;;;;;;;0.40;0.40;;;27.40;99.90;;;;;;5122920;27;20088;-74
2023/06/08 11:47:33;;;;;;;0.57;0.50;;;28.10;99.90;;;;;;5123161;27;20050;-73
2023/06/08 11:50:01;;;;;;;0.57;0.45;;;28.20;99.90;;;;;;5123157;27;20122;-74
2023/06/08 11:52:31;;;;;;;0.70;0.57;;;28.50;99.90;;;;;;5123153;27;20410;-74
2023/06/08 11:55:03;;;;;;;0.28;0.28;;;29.10;99.90;;;;;;5122910;27;20505;-74
2023/06/08 11:57:40;;;;;;;0.75;0.55;;;28.80;99.90;;;;;;5121891;27;20043;-74
2023/06/08 12:00:14;;;;;;;2.35;0.63;;;29.00;99.90;;;;;;5122632;28;20051;-74
2023/06/08 12:02:39;;;;;;;1.45;0.60;;;29.30;99.90;;;;;;5117710;28;20047;-73
2023/06/08 12:05:06;;;;;;;3.03;0.95;;;28.80;99.90;;;;;;5122765;28;20050;-73
2023/06/08 12:07:35;;;;;;;5.07;1.45;;;29.10;99.90;;;;;;5122755;28;20105;-73
2023/06/08 12:10:01;;;;;;;1.67;0.73;;;29.20;99.90;;;;;;5122717;28;20051;-73
2023/06/08 12:12:30;;;;;;;0.40;0.40;;;29.60;99.90;;;;;;5122125;27;20417;-73
2023/06/08 12:14:57;;;;;;;1.58;1.13;;;29.70;99.90;;;;;;5104711;28;20063;-73
2023/06/08 12:17:27;;;;;;;5.95;2.03;;;30.10;99.90;;;;;;5122873;28;20613;-73
2023/06/08 12:19:54;;;;;;;5.47;1.80;;;30.00;99.90;;;;;;5122886;28;20051;-73
2023/06/08 12:22:20;;;;;;;12.73;3.65;;;30.00;99.90;;;;;;5122438;28;20100;-73
2023/06/08 12:24:46;;;;;;;1.25;0.47;;;29.90;99.90;;;;;;5123037;28;20047;-74
2023/06/08 12:27:12;;;;;;;1.60;1.05;;;29.80;99.90;;;;;;5122333;28;20039;-74
2023/06/08 12:29:38;;;;;;;0.00;0.00;;;29.00;99.90;;;;;;5122671;28;20043;-73
2023/06/08 12:32:05;;;;;;;0.00;0.00;;;29.40;99.90;;;;;;5122529;28;20066;-73
2023/06/08 12:34:32;;;;;;;0.80;0.43;;;29.70;99.90;;;;;;5122776;28;20614;-73
2023/06/08 12:36:58;;;;;;;0.08;0.08;;;29.10;99.90;;;;;;5122599;28;20047;-74
2023/06/08 12:39:24;;;;;;;0.28;0.20;;;29.10;99.90;;;;;;5122311;28;20678;-74
2023/06/08 12:41:50;;;;;;;2.20;1.27;;;28.90;99.90;;;;;;5122573;28;20086;-74
2023/06/08 12:44:16;;;;;;;0.32;0.25;;;29.30;99.90;;;;;;5122621;28;20089;-74
2023/06/08 12:46:42;;;;;;;0.25;0.25;;;29.00;99.90;;;;;;5122392;28;20380;-73
2023/06/08 12:49:08;;;;;;;0.22;0.17;;;29.80;99.90;;;;;;5122691;28;20036;-73